createdAt,value
2018-08-09T00:00:03.546Z,11.90
2018-08-09T00:02:31.757Z,12.00
2018-08-09T00:05:00.814Z,12.00
2018-08-09T00:07:29.041Z,11.37
2018-08-09T00:09:57.285Z,12.73
2018-08-09T00:12:25.520Z,11.10
2018-08-09T00:14:53.751Z,11.27
2018-08-09T00:17:22.016Z,10.93
2018-08-09T00:19:50.299Z,12.23
2018-08-09T00:22:18.529Z,11.97
2018-08-09T00:24:46.786Z,12.23
2018-08-09T00:27:15.024Z,11.97
2018-08-09T00:29:43.279Z,11.83
2018-08-09T00:32:11.484Z,11.77
2018-08-09T00:34:39.720Z,11.40
2018-08-09T00:37:07.985Z,12.03
2018-08-09T00:39:36.218Z,11.47
2018-08-09T00:42:04.440Z,11.43
2018-08-09T00:44:32.667Z,11.33
2018-08-09T00:47:04.820Z,11.10
2018-08-09T00:49:33.062Z,11.03
2018-08-09T00:52:01.286Z,11.20
2018-08-09T00:54:29.536Z,11.90
2018-08-09T00:56:57.770Z,12.33
2018-08-09T00:59:25.996Z,11.70
2018-08-09T01:01:54.230Z,12.23
2018-08-09T01:04:22.482Z,11.53
2018-08-09T01:06:50.698Z,11.30
2018-08-09T01:09:50.905Z,12.33
2018-08-09T01:12:19.136Z,10.57
2018-08-09T01:14:47.390Z,11.07
2018-08-09T01:17:15.601Z,11.70
2018-08-09T01:19:43.831Z,11.40
2018-08-09T01:22:12.045Z,11.23
2018-08-09T01:24:40.281Z,11.97
2018-08-09T01:27:09.220Z,11.33
2018-08-09T01:29:38.249Z,11.30
2018-08-09T01:32:06.689Z,12.60
2018-08-09T01:34:34.946Z,11.77
2018-08-09T01:37:03.163Z,12.07
2018-08-09T01:39:31.395Z,11.87
2018-08-09T01:42:10.857Z,12.37
2018-08-09T01:44:39.110Z,11.50
2018-08-09T01:47:07.320Z,11.57
2018-08-09T01:49:35.550Z,11.60
2018-08-09T01:52:03.891Z,11.70
2018-08-09T01:54:32.115Z,11.53
2018-08-09T01:57:00.337Z,11.50
2018-08-09T01:59:28.587Z,11.20
2018-08-09T02:01:56.810Z,10.90
2018-08-09T02:04:25.039Z,10.63
2018-08-09T02:06:53.251Z,10.93
2018-08-09T02:09:26.978Z,11.17
2018-08-09T02:11:55.229Z,10.93
2018-08-09T02:14:23.466Z,10.23
2018-08-09T02:16:51.735Z,9.93
2018-08-09T02:19:19.972Z,9.80
2018-08-09T02:21:48.178Z,9.07
2018-08-09T02:24:16.405Z,9.80
2018-08-09T02:26:44.624Z,10.17
2018-08-09T02:29:12.839Z,10.03
2018-08-09T02:31:41.092Z,10.60
2018-08-09T02:34:09.538Z,10.43
2018-08-09T02:36:37.790Z,10.30
2018-08-09T02:39:07.375Z,10.70
2018-08-09T02:41:35.639Z,9.73
2018-08-09T02:44:03.905Z,10.07
2018-08-09T02:46:32.240Z,10.50
2018-08-09T02:49:00.488Z,9.50
2018-08-09T02:51:28.831Z,10.70
2018-08-09T02:53:57.029Z,9.87
2018-08-09T02:56:25.421Z,11.33
2018-08-09T02:58:53.688Z,9.43
2018-08-09T03:01:21.990Z,10.70
2018-08-09T03:03:50.215Z,10.43
2018-08-09T03:06:18.464Z,10.53
2018-08-09T03:08:46.703Z,10.43
2018-08-09T03:11:14.921Z,9.60
2018-08-09T03:13:43.157Z,10.67
2018-08-09T03:16:11.396Z,11.00
2018-08-09T03:18:39.752Z,9.90
2018-08-09T03:21:08.068Z,10.70
2018-08-09T03:23:36.286Z,10.40
2018-08-09T03:26:04.526Z,11.50
2018-08-09T03:28:32.772Z,11.27
2018-08-09T03:31:01.016Z,11.47
2018-08-09T03:33:29.236Z,10.47
2018-08-09T03:35:57.481Z,11.33
2018-08-09T03:38:25.702Z,11.00
2018-08-09T03:40:53.950Z,12.00
2018-08-09T03:43:22.156Z,11.43
2018-08-09T03:45:50.359Z,11.70
2018-08-09T03:48:18.562Z,11.00
2018-08-09T03:50:46.791Z,11.70
2018-08-09T03:53:15.018Z,12.27
2018-08-09T03:55:43.280Z,11.30
2018-08-09T03:58:11.492Z,12.43
2018-08-09T04:00:39.736Z,12.87
2018-08-09T04:03:08.071Z,13.00
2018-08-09T04:05:36.322Z,11.70
2018-08-09T04:08:04.815Z,12.37
2018-08-09T04:10:33.035Z,11.70
2018-08-09T04:13:01.259Z,11.83
2018-08-09T04:15:29.509Z,12.50
2018-08-09T04:17:57.787Z,12.00
2018-08-09T04:20:25.974Z,12.43
2018-08-09T04:25:32.123Z,11.83
2018-08-09T04:28:00.323Z,11.30
2018-08-09T04:30:28.540Z,11.30
2018-08-09T04:32:56.791Z,11.00
2018-08-09T04:35:24.999Z,10.57
2018-08-09T04:37:53.279Z,12.03
2018-08-09T04:40:21.569Z,11.53
2018-08-09T04:42:49.803Z,10.13
2018-08-09T04:45:18.022Z,10.50
2018-08-09T04:47:46.240Z,10.33
2018-08-09T04:50:14.459Z,11.10
2018-08-09T04:52:42.703Z,11.23
2018-08-09T04:55:10.917Z,10.60
2018-08-09T04:57:39.151Z,10.30
2018-08-09T05:00:07.370Z,11.27
2018-08-09T05:02:35.629Z,11.40
2018-08-09T05:05:04.121Z,10.13
2018-08-09T05:07:32.356Z,11.47
2018-08-09T05:10:05.957Z,11.10
2018-08-09T05:12:34.198Z,11.07
2018-08-09T05:15:02.425Z,10.00
2018-08-09T05:17:30.660Z,10.83
2018-08-09T05:19:58.950Z,11.07
2018-08-09T05:22:27.188Z,10.00
2018-08-09T05:24:55.587Z,9.77
2018-08-09T05:27:23.842Z,9.20
2018-08-09T05:29:52.046Z,9.70
2018-08-09T05:32:20.267Z,9.30
2018-08-09T05:34:48.472Z,9.17
2018-08-09T05:37:16.984Z,8.33
2018-08-09T05:39:45.235Z,9.33
2018-08-09T05:42:13.519Z,8.43
2018-08-09T05:44:41.732Z,8.90
2018-08-09T05:47:09.977Z,8.47
2018-08-09T05:49:38.188Z,8.67
2018-08-09T05:52:06.623Z,7.83
2018-08-09T05:54:34.996Z,7.70
2018-08-09T05:57:03.230Z,8.37
2018-08-09T05:59:31.435Z,8.37
2018-08-09T06:01:59.672Z,7.70
2018-08-09T06:04:27.893Z,7.50
2018-08-09T06:06:56.127Z,8.43
2018-08-09T06:09:24.373Z,7.20
2018-08-09T06:11:52.634Z,7.77
2018-08-09T06:14:20.841Z,7.03
2018-08-09T06:16:49.060Z,7.53
2018-08-09T06:19:17.277Z,7.00
2018-08-09T06:21:45.499Z,6.73
2018-08-09T06:24:13.766Z,7.20
2018-08-09T06:26:42.028Z,6.63
2018-08-09T06:29:10.259Z,6.47
2018-08-09T06:31:38.490Z,9.73
2018-08-09T06:34:06.720Z,7.50
2018-08-09T06:36:34.931Z,7.33
2018-08-09T06:39:04.081Z,6.50
2018-08-09T06:41:32.292Z,6.33
2018-08-09T06:44:00.510Z,6.63
2018-08-09T06:46:28.727Z,6.77
2018-08-09T06:48:56.984Z,7.10
2018-08-09T06:51:25.194Z,7.33
2018-08-09T06:53:53.427Z,8.30
2018-08-09T06:56:21.929Z,6.53
2018-08-09T06:58:50.166Z,7.17
2018-08-09T07:01:18.391Z,6.83
2018-08-09T07:03:46.615Z,7.00
2018-08-09T07:06:14.824Z,8.10
2018-08-09T07:08:43.127Z,6.80
2018-08-09T07:11:11.366Z,7.00
2018-08-09T07:13:39.599Z,7.27
2018-08-09T07:16:07.839Z,7.13
2018-08-09T07:18:36.083Z,7.45
2018-08-09T07:21:04.301Z,6.77
2018-08-09T07:23:32.538Z,7.08
2018-08-09T07:26:00.739Z,6.30
2018-08-09T07:28:28.964Z,5.70
2018-08-09T07:30:57.178Z,6.37
2018-08-09T07:33:25.421Z,5.50
2018-08-09T07:35:53.636Z,5.22
2018-08-09T07:38:21.890Z,6.12
2018-08-09T07:40:50.096Z,5.90
2018-08-09T07:43:18.351Z,5.30
2018-08-09T07:45:46.572Z,5.92
2018-08-09T07:48:14.802Z,5.65
2018-08-09T07:50:43.031Z,5.70
2018-08-09T07:53:11.313Z,5.30
2018-08-09T07:55:39.619Z,5.20
2018-08-09T07:58:07.885Z,5.05
2018-08-09T08:00:36.109Z,5.42
2018-08-09T08:03:04.336Z,5.65
2018-08-09T08:05:32.544Z,5.85
2018-08-09T08:08:00.763Z,6.30
2018-08-09T08:10:29.012Z,5.53
2018-08-09T08:12:57.287Z,5.50
2018-08-09T08:15:25.541Z,6.10
2018-08-09T08:17:53.742Z,4.97
2018-08-09T08:20:21.992Z,5.65
2018-08-09T08:22:50.198Z,5.67
2018-08-09T08:25:18.448Z,6.22
2018-08-09T08:27:46.665Z,5.97
2018-08-09T08:30:14.904Z,6.87
2018-08-09T08:32:43.466Z,5.97
2018-08-09T08:35:11.875Z,6.08
2018-08-09T08:37:40.840Z,5.72
2018-08-09T08:40:09.441Z,6.30
2018-08-09T08:42:38.207Z,6.08
2018-08-09T08:45:08.838Z,7.03
2018-08-09T08:47:37.045Z,5.72
2018-08-09T08:50:05.271Z,5.90
2018-08-09T08:52:33.483Z,6.47
2018-08-09T08:55:01.903Z,6.20
2018-08-09T08:57:30.415Z,5.12
2018-08-09T08:59:58.646Z,5.50
2018-08-09T09:02:26.905Z,6.65
2018-08-09T09:04:55.134Z,5.90
2018-08-09T09:07:23.345Z,5.97
2018-08-09T09:09:51.612Z,6.15
2018-08-09T09:12:19.864Z,6.42
2018-08-09T09:14:48.159Z,6.42
2018-08-09T09:17:16.402Z,6.47
2018-08-09T09:19:44.627Z,6.72
2018-08-09T09:22:12.832Z,6.75
2018-08-09T09:24:41.060Z,6.35
2018-08-09T09:27:09.312Z,6.92
2018-08-09T09:29:37.519Z,6.33
2018-08-09T09:32:05.727Z,6.65
2018-08-09T09:34:33.961Z,18.98
2018-08-09T09:37:02.159Z,6.67
2018-08-09T09:39:30.409Z,6.60
2018-08-09T09:41:58.681Z,6.20
2018-08-09T09:44:26.899Z,7.58
2018-08-09T09:46:55.139Z,6.78
2018-08-09T09:49:23.430Z,7.08
2018-08-09T09:51:51.634Z,7.08
2018-08-09T09:54:19.866Z,6.60
2018-08-09T09:56:48.074Z,6.72
2018-08-09T09:59:16.287Z,6.00
2018-08-09T10:01:44.539Z,8.15
2018-08-09T10:04:12.759Z,7.47
2018-08-09T10:06:40.976Z,6.85
2018-08-09T10:09:10.739Z,7.20
2018-08-09T10:11:39.004Z,7.40
2018-08-09T10:14:07.295Z,7.20
2018-08-09T10:16:35.511Z,8.73
2018-08-09T10:19:03.742Z,7.42
2018-08-09T10:21:31.990Z,8.40
2018-08-09T10:24:00.221Z,7.78
2018-08-09T10:26:28.439Z,7.72
2018-08-09T10:28:56.698Z,7.40
2018-08-09T10:31:24.920Z,7.95
2018-08-09T10:33:53.132Z,7.87
2018-08-09T10:36:21.392Z,8.50
2018-08-09T10:38:49.607Z,8.25
2018-08-09T10:41:17.831Z,8.15
2018-08-09T10:43:46.051Z,7.47
2018-08-09T10:46:14.278Z,7.80
2018-08-09T10:48:42.787Z,7.70
2018-08-09T10:51:11.075Z,7.72
2018-08-09T10:53:39.395Z,7.83
2018-08-09T10:56:07.627Z,7.60
2018-08-09T10:58:35.831Z,7.22
2018-08-09T11:01:04.066Z,7.50
2018-08-09T11:03:32.270Z,7.15
2018-08-09T11:06:00.519Z,7.95
2018-08-09T11:08:28.815Z,7.37
2018-08-09T11:10:57.031Z,7.12
2018-08-09T11:13:25.261Z,7.00
2018-08-09T11:15:53.519Z,6.15
2018-08-09T11:18:21.745Z,6.42
2018-08-09T11:20:49.958Z,6.28
2018-08-09T11:23:18.170Z,6.65
2018-08-09T11:25:46.431Z,7.08
2018-08-09T11:28:14.632Z,6.35
2018-08-09T11:30:42.854Z,6.87
2018-08-09T11:33:11.281Z,6.85
2018-08-09T11:35:39.514Z,6.83
2018-08-09T11:38:07.739Z,6.83
2018-08-09T11:40:35.992Z,6.05
2018-08-09T11:43:04.256Z,7.00
2018-08-09T11:45:32.461Z,7.17
2018-08-09T11:48:00.688Z,7.08
2018-08-09T11:50:28.907Z,6.80
2018-08-09T11:52:57.103Z,6.83
2018-08-09T11:55:25.325Z,7.10
2018-08-09T11:57:53.562Z,6.97
2018-08-09T12:00:21.798Z,7.28
2018-08-09T12:02:50.004Z,6.72
2018-08-09T12:05:18.258Z,7.22
2018-08-09T12:07:46.511Z,6.95
2018-08-09T12:10:14.865Z,6.95
2018-08-09T12:12:43.155Z,7.10
2018-08-09T12:15:11.443Z,7.10
2018-08-09T12:17:39.673Z,7.17
2018-08-09T12:20:08.027Z,7.00
2018-08-09T12:22:36.309Z,6.50
2018-08-09T12:25:04.702Z,6.40
2018-08-09T12:27:32.943Z,7.00
2018-08-09T12:30:01.162Z,6.72
2018-08-09T12:32:29.409Z,6.22
2018-08-09T12:34:57.627Z,6.85
2018-08-09T12:37:25.880Z,6.53
2018-08-09T12:39:54.090Z,6.05
2018-08-09T12:42:22.310Z,6.08
2018-08-09T12:44:50.542Z,6.85
2018-08-09T12:47:18.778Z,6.28
2018-08-09T12:49:46.972Z,5.85
2018-08-09T12:52:15.196Z,5.70
2018-08-09T12:54:43.426Z,6.45
2018-08-09T12:57:11.660Z,6.12
2018-08-09T12:59:39.908Z,6.15
2018-08-09T13:02:08.326Z,6.15
2018-08-09T13:04:37.640Z,6.95
2018-08-09T13:07:06.421Z,8.88
2018-08-09T13:09:34.636Z,7.40
2018-08-09T13:12:02.904Z,6.15
2018-08-09T13:14:31.139Z,6.37
2018-08-09T13:16:59.522Z,6.53
2018-08-09T13:19:27.757Z,6.15
2018-08-09T13:21:55.979Z,6.20
2018-08-09T13:24:24.213Z,6.47
2018-08-09T13:26:52.459Z,6.70
2018-08-09T13:29:20.680Z,6.50
2018-08-09T13:31:48.913Z,6.47
2018-08-09T13:34:17.123Z,6.00
2018-08-09T13:36:45.339Z,6.47
2018-08-09T13:39:14.193Z,7.50
2018-08-09T13:41:43.814Z,6.62
2018-08-09T13:44:12.116Z,6.03
2018-08-09T13:46:40.399Z,6.25
2018-08-09T13:49:08.577Z,6.47
2018-08-09T13:51:36.881Z,6.53
2018-08-09T13:54:05.105Z,6.35
2018-08-09T13:56:33.414Z,6.40
2018-08-09T13:59:02.727Z,6.50
2018-08-09T14:01:30.958Z,5.72
2018-08-09T14:03:59.206Z,6.17
2018-08-09T14:06:27.442Z,5.53
2018-08-09T14:08:55.675Z,6.50
2018-08-09T14:11:23.915Z,5.87
2018-08-09T14:13:52.178Z,6.25
2018-08-09T14:16:20.397Z,5.83
2018-08-09T14:18:48.623Z,5.80
2018-08-09T14:21:16.847Z,5.53
2018-08-09T14:23:45.093Z,5.70
2018-08-09T14:26:13.296Z,6.22
2018-08-09T14:28:41.516Z,5.78
2018-08-09T14:31:09.757Z,5.65
2018-08-09T14:33:37.991Z,5.70
2018-08-09T14:36:06.217Z,5.78
2018-08-09T14:38:34.468Z,5.37
2018-08-09T14:41:02.671Z,5.60
2018-08-09T14:43:30.939Z,5.80
2018-08-09T14:45:59.164Z,5.95
2018-08-09T14:48:27.382Z,6.05
2018-08-09T14:50:55.625Z,5.70
2018-08-09T14:53:23.879Z,6.17
2018-08-09T14:55:52.082Z,6.00
2018-08-09T14:58:20.302Z,6.62
2018-08-09T15:00:48.495Z,5.95
2018-08-09T15:03:16.787Z,6.03
2018-08-09T15:05:45.069Z,6.40
2018-08-09T15:08:13.264Z,5.87
2018-08-09T15:10:41.479Z,6.60
2018-08-09T15:13:09.731Z,5.92
2018-08-09T15:15:37.992Z,6.67
2018-08-09T15:18:06.407Z,5.40
2018-08-09T15:20:34.633Z,5.30
2018-08-09T15:23:02.860Z,6.05
2018-08-09T15:25:31.098Z,6.28
2018-08-09T15:27:59.363Z,6.03
2018-08-09T15:30:27.583Z,5.87
2018-08-09T15:32:55.833Z,5.80
2018-08-09T15:35:24.069Z,5.62
2018-08-09T15:37:52.345Z,5.65
2018-08-09T15:40:20.562Z,5.90
2018-08-09T15:42:48.778Z,6.03
2018-08-09T15:45:17.093Z,5.20
2018-08-09T15:47:45.393Z,5.65
2018-08-09T15:50:15.959Z,5.70
2018-08-09T15:52:44.194Z,5.30
2018-08-09T15:55:13.089Z,5.08
2018-08-09T15:57:41.315Z,5.60
2018-08-09T16:00:14.820Z,5.75
2018-08-09T16:02:43.283Z,5.22
2018-08-09T16:05:11.522Z,5.25
2018-08-09T16:07:39.727Z,5.92
2018-08-09T16:10:11.118Z,5.80
2018-08-09T16:12:39.638Z,5.55
2018-08-09T16:15:09.279Z,5.17
2018-08-09T16:17:37.540Z,5.67
2018-08-09T16:20:07.144Z,4.97
2018-08-09T16:22:35.566Z,5.10
2018-08-09T16:25:04.907Z,5.95
2018-08-09T16:27:33.131Z,5.42
2018-08-09T16:30:01.414Z,5.33
2018-08-09T16:32:29.614Z,5.30
2018-08-09T16:34:57.892Z,5.35
2018-08-09T16:37:26.141Z,5.25
2018-08-09T16:39:54.390Z,5.70
2018-08-09T16:42:22.628Z,5.83
2018-08-09T16:44:50.855Z,6.08
2018-08-09T16:47:19.066Z,5.17
2018-08-09T16:49:47.296Z,5.83
2018-08-09T16:52:15.544Z,5.53
2018-08-09T16:54:43.767Z,5.80
2018-08-09T16:57:12.005Z,5.50
2018-08-09T16:59:40.234Z,5.60
2018-08-09T17:02:08.439Z,5.60
2018-08-09T17:04:36.707Z,5.10
2018-08-09T17:07:04.931Z,5.53
2018-08-09T17:09:33.161Z,6.30
2018-08-09T17:12:01.389Z,5.80
2018-08-09T17:14:29.614Z,5.67
2018-08-09T17:16:57.842Z,5.60
2018-08-09T17:19:26.095Z,5.70
2018-08-09T17:21:54.315Z,6.08
2018-08-09T17:24:22.546Z,5.65
2018-08-09T17:26:50.768Z,6.15
2018-08-09T17:29:19.018Z,6.30
2018-08-09T17:31:47.234Z,6.05
2018-08-09T17:34:15.469Z,6.00
2018-08-09T17:36:43.756Z,5.65
2018-08-09T17:39:12.491Z,6.28
2018-08-09T17:41:40.820Z,6.08
2018-08-09T17:44:10.674Z,5.42
2018-08-09T17:46:38.901Z,6.05
2018-08-09T17:49:07.159Z,6.50
2018-08-09T17:51:35.437Z,6.10
2018-08-09T17:54:03.688Z,6.17
2018-08-09T17:56:31.903Z,6.25
2018-08-09T17:59:00.147Z,6.35
2018-08-09T18:01:28.358Z,6.00
2018-08-09T18:03:56.603Z,6.25
2018-08-09T18:06:24.839Z,5.65
2018-08-09T18:08:53.126Z,6.53
2018-08-09T18:11:21.356Z,6.22
2018-08-09T18:13:49.605Z,5.92
2018-08-09T18:16:17.843Z,6.15
2018-08-09T18:18:46.064Z,5.60
2018-08-09T18:21:14.295Z,5.95
2018-08-09T18:23:42.527Z,5.47
2018-08-09T18:26:10.803Z,5.80
2018-08-09T18:28:39.048Z,5.30
2018-08-09T18:31:07.308Z,5.28
2018-08-09T18:33:35.528Z,5.58
2018-08-09T18:36:03.786Z,5.17
2018-08-09T18:38:32.016Z,4.80
2018-08-09T18:41:00.256Z,4.97
2018-08-09T18:43:28.553Z,5.20
2018-08-09T18:45:56.791Z,5.15
2018-08-09T18:48:25.017Z,5.20
2018-08-09T18:50:53.269Z,4.67
2018-08-09T18:53:21.500Z,4.60
2018-08-09T18:55:49.732Z,4.65
2018-08-09T18:58:17.963Z,4.60
2018-08-09T19:00:46.239Z,5.20
2018-08-09T19:03:14.464Z,4.45
2018-08-09T19:05:42.712Z,5.10
2018-08-09T19:08:10.937Z,4.70
2018-08-09T19:10:39.160Z,4.58
2018-08-09T19:13:07.439Z,4.78
2018-08-09T19:15:35.712Z,5.10
2018-08-09T19:18:03.924Z,4.62
2018-08-09T19:20:34.335Z,4.75
2018-08-09T19:23:02.876Z,5.00
2018-08-09T19:25:31.118Z,4.60
2018-08-09T19:27:59.404Z,4.42
2018-08-09T19:30:29.080Z,4.50
2018-08-09T19:32:57.326Z,4.70
2018-08-09T19:35:25.647Z,4.70
2018-08-09T19:37:53.902Z,4.83
2018-08-09T19:40:23.443Z,5.35
2018-08-09T19:42:51.711Z,5.05
2018-08-09T19:45:20.253Z,4.87
2018-08-09T19:47:48.595Z,6.92
2018-08-09T19:50:18.317Z,8.70
2018-08-09T19:52:46.542Z,8.80
2018-08-09T19:55:17.093Z,6.83
2018-08-09T19:57:46.488Z,9.15
2018-08-09T20:00:17.248Z,5.60
2018-08-09T20:02:46.587Z,5.75
2018-08-09T20:05:14.811Z,5.90
2018-08-09T20:07:43.176Z,6.08
2018-08-09T20:10:12.106Z,6.05
2018-08-09T20:12:40.460Z,5.72
2018-08-09T20:15:11.212Z,6.75
2018-08-09T20:17:39.463Z,6.65
2018-08-09T20:20:08.310Z,6.33
2018-08-09T20:22:36.550Z,6.03
2018-08-09T20:25:05.680Z,6.58
2018-08-09T20:27:33.894Z,6.30
2018-08-09T20:30:02.121Z,6.42
2018-08-09T20:32:30.354Z,6.67
2018-08-09T20:34:58.601Z,7.00
2018-08-09T20:37:26.854Z,7.90
2018-08-09T20:39:55.095Z,7.70
2018-08-09T20:42:23.322Z,8.00
2018-08-09T20:44:51.539Z,6.70
2018-08-09T20:47:19.801Z,8.37
2018-08-09T20:49:48.004Z,7.07
2018-08-09T20:52:16.627Z,8.43
2018-08-09T20:54:44.861Z,9.20
2018-08-09T20:57:13.116Z,8.77
2018-08-09T20:59:41.344Z,7.27
2018-08-09T21:02:09.763Z,8.27
2018-08-09T21:04:37.975Z,8.90
2018-08-09T21:07:06.192Z,8.60
2018-08-09T21:09:34.410Z,8.70
2018-08-09T21:12:02.670Z,9.63
2018-08-09T21:14:30.917Z,9.17
2018-08-09T21:16:59.154Z,8.40
2018-08-09T21:19:27.377Z,8.47
2018-08-09T21:21:55.656Z,9.63
2018-08-09T21:24:23.859Z,8.83
2018-08-09T21:26:52.147Z,8.70
2018-08-09T21:29:20.380Z,10.10
2018-08-09T21:31:48.625Z,9.40
2018-08-09T21:34:16.821Z,9.13
2018-08-09T21:36:45.031Z,9.30
2018-08-09T21:39:13.232Z,8.80
2018-08-09T21:41:41.455Z,8.73
2018-08-09T21:44:09.646Z,8.60
2018-08-09T21:46:37.851Z,8.80
2018-08-09T21:49:07.131Z,9.53
2018-08-09T21:51:35.357Z,9.80
2018-08-09T21:54:03.691Z,9.87
2018-08-09T21:56:32.165Z,9.80
2018-08-09T21:59:00.407Z,9.40
2018-08-09T22:01:28.665Z,10.93
2018-08-09T22:03:56.891Z,10.47
2018-08-09T22:06:30.696Z,11.70
2018-08-09T22:09:04.369Z,10.37
2018-08-09T22:11:37.813Z,10.20
2018-08-09T22:14:11.551Z,9.87
2018-08-09T22:16:45.120Z,9.90
2018-08-09T22:19:18.665Z,10.00
2018-08-09T22:21:52.317Z,10.77
2018-08-09T22:24:20.513Z,10.70
2018-08-09T22:26:48.785Z,10.53
2018-08-09T22:29:17.011Z,10.70
2018-08-09T22:31:45.257Z,11.07
2018-08-09T22:34:13.495Z,10.67
2018-08-09T22:36:41.718Z,10.20
2018-08-09T22:39:09.993Z,11.10
2018-08-09T22:41:38.227Z,10.83
2018-08-09T22:44:06.441Z,10.50
2018-08-09T22:46:34.653Z,11.43
2018-08-09T22:49:02.887Z,10.83
2018-08-09T22:51:31.220Z,10.70
2018-08-09T22:53:59.450Z,10.63
2018-08-09T22:56:27.667Z,10.37
2018-08-09T22:58:55.939Z,10.83
2018-08-09T23:01:24.143Z,10.30
2018-08-09T23:03:52.382Z,11.20
2018-08-09T23:06:20.579Z,10.80
2018-08-09T23:08:48.820Z,10.97
2018-08-09T23:11:17.039Z,9.83
2018-08-09T23:13:45.297Z,10.70
2018-08-09T23:16:13.514Z,10.47
2018-08-09T23:18:41.732Z,10.90
2018-08-09T23:21:09.947Z,11.07
2018-08-09T23:23:38.177Z,10.97
2018-08-09T23:26:06.405Z,10.83
2018-08-09T23:28:34.660Z,10.73
2018-08-09T23:31:02.880Z,10.57
2018-08-09T23:33:31.120Z,10.83
2018-08-09T23:35:59.334Z,11.30
2018-08-09T23:38:27.567Z,11.03
2018-08-09T23:40:55.779Z,10.53
2018-08-09T23:43:23.995Z,10.53
2018-08-09T23:45:52.219Z,10.27
2018-08-09T23:48:20.443Z,10.73
2018-08-09T23:50:48.859Z,11.17
2018-08-09T23:53:17.088Z,11.50
2018-08-09T23:55:45.304Z,11.03
2018-08-09T23:58:13.539Z,10.90
